sensor_id;sensor_type;location;lat;lon;timestamp;P1;durP1;ratioP1;P2;durP2;ratioP2
41705;SDS011;27385;51.096;17.190;2022-08-19T00:01:40;13.70;;;5.60;;
41705;SDS011;27385;51.096;17.190;2022-08-19T00:04:14;15.60;;;6.60;;
41705;SDS011;27385;51.096;17.190;2022-08-19T00:06:48;12.90;;;5.20;;
41705;SDS011;27385;51.096;17.190;2022-08-19T00:09:20;13.80;;;5.30;;
41705;SDS011;27385;51.096;17.190;2022-08-19T00:11:53;10.90;;;5.10;;
41705;SDS011;27385;51.096;17.190;2022-08-19T00:14:26;13.00;;;4.90;;
41705;SDS011;27385;51.096;17.190;2022-08-19T00:17:00;15.00;;;7.30;;
41705;SDS011;27385;51.096;17.190;2022-08-19T00:19:32;12.30;;;4.90;;
41705;SDS011;27385;51.096;17.190;2022-08-19T00:22:05;12.80;;;5.30;;
41705;SDS011;27385;51.096;17.190;2022-08-19T00:24:37;12.90;;;5.00;;
41705;SDS011;27385;51.096;17.190;2022-08-19T00:27:11;11.60;;;4.80;;
41705;SDS011;27385;51.096;17.190;2022-08-19T00:29:44;11.70;;;5.10;;
41705;SDS011;27385;51.096;17.190;2022-08-19T00:32:16;11.10;;;4.80;;
41705;SDS011;27385;51.096;17.190;2022-08-19T00:34:48;15.50;;;6.50;;
41705;SDS011;27385;51.096;17.190;2022-08-19T00:37:20;13.10;;;5.00;;
41705;SDS011;27385;51.096;17.190;2022-08-19T00:39:56;14.00;;;6.00;;
41705;SDS011;27385;51.096;17.190;2022-08-19T00:42:27;15.50;;;5.10;;
41705;SDS011;27385;51.096;17.190;2022-08-19T00:44:59;13.30;;;5.50;;
41705;SDS011;27385;51.096;17.190;2022-08-19T00:47:31;10.80;;;4.70;;
41705;SDS011;27385;51.096;17.190;2022-08-19T00:50:03;10.70;;;4.70;;
41705;SDS011;27385;51.096;17.190;2022-08-19T00:52:38;11.90;;;5.00;;
41705;SDS011;27385;51.096;17.190;2022-08-19T00:55:14;10.20;;;4.20;;
41705;SDS011;27385;51.096;17.190;2022-08-19T00:57:51;12.20;;;4.80;;
41705;SDS011;27385;51.096;17.190;2022-08-19T01:00:27;13.20;;;4.80;;
41705;SDS011;27385;51.096;17.190;2022-08-19T01:03:00;13.00;;;5.30;;
41705;SDS011;27385;51.096;17.190;2022-08-19T01:05:32;10.60;;;4.80;;
41705;SDS011;27385;51.096;17.190;2022-08-19T01:08:05;10.50;;;4.80;;
41705;SDS011;27385;51.096;17.190;2022-08-19T01:10:39;13.60;;;5.60;;
41705;SDS011;27385;51.096;17.190;2022-08-19T01:13:15;11.30;;;4.60;;
41705;SDS011;27385;51.096;17.190;2022-08-19T01:15:53;13.40;;;5.40;;
41705;SDS011;27385;51.096;17.190;2022-08-19T01:18:30;11.70;;;5.20;;
41705;SDS011;27385;51.096;17.190;2022-08-19T01:21:08;13.80;;;6.20;;
41705;SDS011;27385;51.096;17.190;2022-08-19T01:23:48;13.40;;;5.00;;
41705;SDS011;27385;51.096;17.190;2022-08-19T01:26:21;12.70;;;5.40;;
41705;SDS011;27385;51.096;17.190;2022-08-19T01:28:55;12.10;;;4.70;;
41705;SDS011;27385;51.096;17.190;2022-08-19T01:31:29;11.70;;;4.70;;
41705;SDS011;27385;51.096;17.190;2022-08-19T01:34:01;11.20;;;4.80;;
41705;SDS011;27385;51.096;17.190;2022-08-19T01:36:33;11.20;;;4.50;;
41705;SDS011;27385;51.096;17.190;2022-08-19T01:39:07;12.60;;;5.10;;
41705;SDS011;27385;51.096;17.190;2022-08-19T01:41:41;11.50;;;5.00;;
41705;SDS011;27385;51.096;17.190;2022-08-19T01:44:12;13.20;;;6.20;;
41705;SDS011;27385;51.096;17.190;2022-08-19T01:46:44;13.00;;;5.40;;
41705;SDS011;27385;51.096;17.190;2022-08-19T01:49:17;15.00;;;5.20;;
41705;SDS011;27385;51.096;17.190;2022-08-19T01:51:51;21.20;;;5.80;;
41705;SDS011;27385;51.096;17.190;2022-08-19T01:54:23;15.00;;;5.90;;
41705;SDS011;27385;51.096;17.190;2022-08-19T01:56:57;12.80;;;5.50;;
41705;SDS011;27385;51.096;17.190;2022-08-19T01:59:33;13.30;;;5.10;;
41705;SDS011;27385;51.096;17.190;2022-08-19T02:02:05;12.00;;;5.60;;
41705;SDS011;27385;51.096;17.190;2022-08-19T02:04:38;12.80;;;5.00;;
41705;SDS011;27385;51.096;17.190;2022-08-19T02:07:10;16.50;;;5.80;;
41705;SDS011;27385;51.096;17.190;2022-08-19T02:09:42;12.30;;;5.30;;
41705;SDS011;27385;51.096;17.190;2022-08-19T02:12:14;11.50;;;5.30;;
41705;SDS011;27385;51.096;17.190;2022-08-19T02:14:45;17.70;;;6.10;;
41705;SDS011;27385;51.096;17.190;2022-08-19T02:17:17;13.10;;;5.30;;
41705;SDS011;27385;51.096;17.190;2022-08-19T02:19:48;10.70;;;4.70;;
41705;SDS011;27385;51.096;17.190;2022-08-19T02:22:20;14.00;;;6.30;;
41705;SDS011;27385;51.096;17.190;2022-08-19T02:24:54;12.00;;;5.40;;
41705;SDS011;27385;51.096;17.190;2022-08-19T02:27:26;12.50;;;5.00;;
41705;SDS011;27385;51.096;17.190;2022-08-19T02:29:57;15.80;;;5.90;;
41705;SDS011;27385;51.096;17.190;2022-08-19T02:32:29;14.10;;;6.00;;
41705;SDS011;27385;51.096;17.190;2022-08-19T02:35:01;14.90;;;6.30;;
41705;SDS011;27385;51.096;17.190;2022-08-19T02:37:33;13.90;;;5.80;;
41705;SDS011;27385;51.096;17.190;2022-08-19T02:40:22;18.40;;;6.30;;
41705;SDS011;27385;51.096;17.190;2022-08-19T02:42:55;14.10;;;6.20;;
41705;SDS011;27385;51.096;17.190;2022-08-19T02:45:27;12.00;;;5.70;;
41705;SDS011;27385;51.096;17.190;2022-08-19T02:48:03;13.30;;;6.50;;
41705;SDS011;27385;51.096;17.190;2022-08-19T02:50:38;13.50;;;6.40;;
41705;SDS011;27385;51.096;17.190;2022-08-19T02:53:10;12.70;;;5.90;;
41705;SDS011;27385;51.096;17.190;2022-08-19T02:55:46;13.60;;;6.50;;
41705;SDS011;27385;51.096;17.190;2022-08-19T02:58:18;13.60;;;5.50;;
41705;SDS011;27385;51.096;17.190;2022-08-19T03:00:52;12.50;;;5.90;;
41705;SDS011;27385;51.096;17.190;2022-08-19T03:03:25;13.20;;;6.00;;
41705;SDS011;27385;51.096;17.190;2022-08-19T03:06:04;13.60;;;6.00;;
41705;SDS011;27385;51.096;17.190;2022-08-19T03:08:40;12.10;;;5.70;;
41705;SDS011;27385;51.096;17.190;2022-08-19T03:11:14;13.40;;;6.20;;
41705;SDS011;27385;51.096;17.190;2022-08-19T03:13:47;15.20;;;6.60;;
41705;SDS011;27385;51.096;17.190;2022-08-19T03:16:22;17.90;;;6.40;;
41705;SDS011;27385;51.096;17.190;2022-08-19T03:18:56;15.90;;;6.00;;
41705;SDS011;27385;51.096;17.190;2022-08-19T03:21:29;15.00;;;5.90;;
41705;SDS011;27385;51.096;17.190;2022-08-19T03:24:03;13.70;;;5.50;;
41705;SDS011;27385;51.096;17.190;2022-08-19T03:26:40;12.00;;;6.00;;
41705;SDS011;27385;51.096;17.190;2022-08-19T03:29:13;14.10;;;5.60;;
41705;SDS011;27385;51.096;17.190;2022-08-19T03:31:45;13.20;;;5.80;;
41705;SDS011;27385;51.096;17.190;2022-08-19T03:34:19;13.50;;;7.00;;
41705;SDS011;27385;51.096;17.190;2022-08-19T03:36:54;16.00;;;6.90;;
41705;SDS011;27385;51.096;17.190;2022-08-19T03:39:28;15.60;;;7.10;;
41705;SDS011;27385;51.096;17.190;2022-08-19T03:41:59;14.90;;;6.20;;
41705;SDS011;27385;51.096;17.190;2022-08-19T03:44:31;14.00;;;6.80;;
41705;SDS011;27385;51.096;17.190;2022-08-19T03:47:05;16.40;;;6.90;;
41705;SDS011;27385;51.096;17.190;2022-08-19T03:49:37;18.60;;;8.30;;
41705;SDS011;27385;51.096;17.190;2022-08-19T03:52:09;17.00;;;7.00;;
41705;SDS011;27385;51.096;17.190;2022-08-19T03:54:40;17.30;;;7.20;;
41705;SDS011;27385;51.096;17.190;2022-08-19T03:57:12;18.60;;;7.30;;
41705;SDS011;27385;51.096;17.190;2022-08-19T03:59:44;14.50;;;6.40;;
41705;SDS011;27385;51.096;17.190;2022-08-19T04:02:15;16.20;;;7.10;;
41705;SDS011;27385;51.096;17.190;2022-08-19T04:04:48;17.40;;;7.10;;
41705;SDS011;27385;51.096;17.190;2022-08-19T04:07:22;18.20;;;7.10;;
41705;SDS011;27385;51.096;17.190;2022-08-19T04:09:54;21.70;;;8.40;;
41705;SDS011;27385;51.096;17.190;2022-08-19T04:12:25;20.50;;;7.70;;
41705;SDS011;27385;51.096;17.190;2022-08-19T04:14:58;16.50;;;7.70;;
41705;SDS011;27385;51.096;17.190;2022-08-19T04:17:30;19.00;;;8.00;;
41705;SDS011;27385;51.096;17.190;2022-08-19T04:20:02;23.90;;;8.70;;
41705;SDS011;27385;51.096;17.190;2022-08-19T04:22:35;16.50;;;7.30;;
41705;SDS011;27385;51.096;17.190;2022-08-19T04:25:07;17.50;;;8.20;;
41705;SDS011;27385;51.096;17.190;2022-08-19T04:27:39;18.20;;;8.30;;
41705;SDS011;27385;51.096;17.190;2022-08-19T04:30:14;18.30;;;8.20;;
41705;SDS011;27385;51.096;17.190;2022-08-19T04:32:47;20.60;;;9.00;;
41705;SDS011;27385;51.096;17.190;2022-08-19T04:35:19;18.30;;;8.60;;
41705;SDS011;27385;51.096;17.190;2022-08-19T04:37:50;17.90;;;9.30;;
41705;SDS011;27385;51.096;17.190;2022-08-19T04:40:22;22.80;;;8.80;;
41705;SDS011;27385;51.096;17.190;2022-08-19T04:43:11;19.70;;;9.20;;
41705;SDS011;27385;51.096;17.190;2022-08-19T04:45:42;18.50;;;8.50;;
41705;SDS011;27385;51.096;17.190;2022-08-19T04:48:15;18.50;;;8.50;;
41705;SDS011;27385;51.096;17.190;2022-08-19T04:50:55;21.20;;;8.90;;
41705;SDS011;27385;51.096;17.190;2022-08-19T04:53:28;16.90;;;9.30;;
41705;SDS011;27385;51.096;17.190;2022-08-19T04:56:03;19.30;;;8.90;;
41705;SDS011;27385;51.096;17.190;2022-08-19T04:58:37;18.80;;;9.80;;
41705;SDS011;27385;51.096;17.190;2022-08-19T05:01:14;22.20;;;9.50;;
41705;SDS011;27385;51.096;17.190;2022-08-19T05:03:49;20.20;;;8.80;;
41705;SDS011;27385;51.096;17.190;2022-08-19T05:06:22;20.00;;;9.30;;
41705;SDS011;27385;51.096;17.190;2022-08-19T05:08:54;19.10;;;8.70;;
41705;SDS011;27385;51.096;17.190;2022-08-19T05:11:26;18.40;;;9.70;;
41705;SDS011;27385;51.096;17.190;2022-08-19T05:13:59;20.40;;;10.30;;
41705;SDS011;27385;51.096;17.190;2022-08-19T05:16:31;19.80;;;10.60;;
41705;SDS011;27385;51.096;17.190;2022-08-19T05:19:03;21.20;;;10.10;;
41705;SDS011;27385;51.096;17.190;2022-08-19T05:21:52;19.40;;;9.30;;
41705;SDS011;27385;51.096;17.190;2022-08-19T05:24:42;19.90;;;9.10;;
41705;SDS011;27385;51.096;17.190;2022-08-19T05:27:13;21.20;;;9.80;;
41705;SDS011;27385;51.096;17.190;2022-08-19T05:29:45;19.00;;;9.80;;
41705;SDS011;27385;51.096;17.190;2022-08-19T05:32:16;24.40;;;10.00;;
41705;SDS011;27385;51.096;17.190;2022-08-19T05:34:50;23.40;;;9.60;;
41705;SDS011;27385;51.096;17.190;2022-08-19T05:37:21;20.10;;;9.90;;
41705;SDS011;27385;51.096;17.190;2022-08-19T05:39:55;20.00;;;10.00;;
41705;SDS011;27385;51.096;17.190;2022-08-19T05:42:26;20.50;;;10.60;;
41705;SDS011;27385;51.096;17.190;2022-08-19T05:44:58;18.50;;;9.20;;
41705;SDS011;27385;51.096;17.190;2022-08-19T05:47:30;21.70;;;10.00;;
41705;SDS011;27385;51.096;17.190;2022-08-19T05:50:01;22.30;;;10.00;;
41705;SDS011;27385;51.096;17.190;2022-08-19T05:52:33;22.10;;;10.40;;
41705;SDS011;27385;51.096;17.190;2022-08-19T05:55:07;21.50;;;10.10;;
41705;SDS011;27385;51.096;17.190;2022-08-19T05:57:39;23.50;;;10.10;;
41705;SDS011;27385;51.096;17.190;2022-08-19T06:00:13;22.20;;;10.70;;
41705;SDS011;27385;51.096;17.190;2022-08-19T06:02:45;20.50;;;10.10;;
41705;SDS011;27385;51.096;17.190;2022-08-19T06:05:17;24.30;;;9.90;;
41705;SDS011;27385;51.096;17.190;2022-08-19T06:07:49;19.50;;;10.00;;
41705;SDS011;27385;51.096;17.190;2022-08-19T06:10:21;21.10;;;9.80;;
41705;SDS011;27385;51.096;17.190;2022-08-19T06:12:53;20.30;;;9.70;;
41705;SDS011;27385;51.096;17.190;2022-08-19T06:15:25;17.80;;;9.20;;
41705;SDS011;27385;51.096;17.190;2022-08-19T06:17:56;21.60;;;9.50;;
41705;SDS011;27385;51.096;17.190;2022-08-19T06:20:29;21.40;;;9.50;;
41705;SDS011;27385;51.096;17.190;2022-08-19T06:23:00;17.30;;;9.60;;
41705;SDS011;27385;51.096;17.190;2022-08-19T06:25:32;19.10;;;9.70;;
41705;SDS011;27385;51.096;17.190;2022-08-19T06:28:04;20.20;;;10.00;;
41705;SDS011;27385;51.096;17.190;2022-08-19T06:30:36;23.30;;;9.70;;
41705;SDS011;27385;51.096;17.190;2022-08-19T06:33:10;17.30;;;9.10;;
41705;SDS011;27385;51.096;17.190;2022-08-19T06:35:41;17.20;;;9.50;;
41705;SDS011;27385;51.096;17.190;2022-08-19T06:38:13;19.80;;;9.30;;
41705;SDS011;27385;51.096;17.190;2022-08-19T06:40:45;18.10;;;9.10;;
41705;SDS011;27385;51.096;17.190;2022-08-19T06:43:17;17.30;;;8.70;;
41705;SDS011;27385;51.096;17.190;2022-08-19T06:45:50;18.20;;;9.80;;
41705;SDS011;27385;51.096;17.190;2022-08-19T06:48:22;19.50;;;8.40;;
41705;SDS011;27385;51.096;17.190;2022-08-19T06:50:54;19.70;;;8.90;;
41705;SDS011;27385;51.096;17.190;2022-08-19T06:53:26;22.50;;;9.90;;
41705;SDS011;27385;51.096;17.190;2022-08-19T06:55:58;19.60;;;8.90;;
41705;SDS011;27385;51.096;17.190;2022-08-19T06:58:31;17.90;;;8.50;;
41705;SDS011;27385;51.096;17.190;2022-08-19T07:01:03;21.70;;;9.40;;
41705;SDS011;27385;51.096;17.190;2022-08-19T07:03:37;18.40;;;9.60;;
41705;SDS011;27385;51.096;17.190;2022-08-19T07:06:11;21.30;;;9.20;;
41705;SDS011;27385;51.096;17.190;2022-08-19T07:08:45;21.50;;;9.30;;
41705;SDS011;27385;51.096;17.190;2022-08-19T07:11:18;18.00;;;8.00;;
41705;SDS011;27385;51.096;17.190;2022-08-19T07:13:51;18.40;;;8.90;;
41705;SDS011;27385;51.096;17.190;2022-08-19T07:16:23;15.90;;;8.60;;
41705;SDS011;27385;51.096;17.190;2022-08-19T07:18:58;19.30;;;8.10;;
41705;SDS011;27385;51.096;17.190;2022-08-19T07:21:31;16.90;;;8.30;;
41705;SDS011;27385;51.096;17.190;2022-08-19T07:24:06;15.80;;;7.80;;
41705;SDS011;27385;51.096;17.190;2022-08-19T07:26:42;18.00;;;9.10;;
41705;SDS011;27385;51.096;17.190;2022-08-19T07:29:16;14.80;;;7.50;;
41705;SDS011;27385;51.096;17.190;2022-08-19T07:31:51;20.40;;;7.60;;
41705;SDS011;27385;51.096;17.190;2022-08-19T07:34:24;17.40;;;7.60;;
41705;SDS011;27385;51.096;17.190;2022-08-19T07:36:58;16.90;;;7.10;;
41705;SDS011;27385;51.096;17.190;2022-08-19T07:39:32;18.20;;;7.20;;
41705;SDS011;27385;51.096;17.190;2022-08-19T07:42:06;16.40;;;6.20;;
41705;SDS011;27385;51.096;17.190;2022-08-19T07:44:40;15.40;;;6.60;;
41705;SDS011;27385;51.096;17.190;2022-08-19T07:47:13;15.90;;;7.10;;
41705;SDS011;27385;51.096;17.190;2022-08-19T07:49:45;17.70;;;6.10;;
41705;SDS011;27385;51.096;17.190;2022-08-19T07:52:17;16.20;;;8.40;;
41705;SDS011;27385;51.096;17.190;2022-08-19T07:54:51;16.10;;;7.00;;
41705;SDS011;27385;51.096;17.190;2022-08-19T07:57:23;17.60;;;6.00;;
41705;SDS011;27385;51.096;17.190;2022-08-19T07:59:54;15.10;;;6.60;;
41705;SDS011;27385;51.096;17.190;2022-08-19T08:02:26;15.00;;;5.80;;
41705;SDS011;27385;51.096;17.190;2022-08-19T08:04:59;20.00;;;7.60;;
41705;SDS011;27385;51.096;17.190;2022-08-19T08:07:48;16.40;;;5.80;;
41705;SDS011;27385;51.096;17.190;2022-08-19T08:13:08;19.40;;;6.40;;
41705;SDS011;27385;51.096;17.190;2022-08-19T08:15:40;13.10;;;6.30;;
41705;SDS011;27385;51.096;17.190;2022-08-19T08:18:13;9.70;;;4.80;;
41705;SDS011;27385;51.096;17.190;2022-08-19T08:20:45;13.30;;;5.40;;
41705;SDS011;27385;51.096;17.190;2022-08-19T08:23:16;15.40;;;6.00;;
41705;SDS011;27385;51.096;17.190;2022-08-19T08:25:54;17.00;;;8.20;;
41705;SDS011;27385;51.096;17.190;2022-08-19T08:28:28;18.20;;;5.80;;
41705;SDS011;27385;51.096;17.190;2022-08-19T08:31:01;13.80;;;6.40;;
41705;SDS011;27385;51.096;17.190;2022-08-19T08:33:39;12.80;;;5.20;;
41705;SDS011;27385;51.096;17.190;2022-08-19T08:36:12;18.80;;;6.20;;
41705;SDS011;27385;51.096;17.190;2022-08-19T08:38:46;14.40;;;5.40;;
41705;SDS011;27385;51.096;17.190;2022-08-19T08:41:21;14.50;;;5.60;;
41705;SDS011;27385;51.096;17.190;2022-08-19T08:43:57;13.70;;;5.40;;
41705;SDS011;27385;51.096;17.190;2022-08-19T08:46:33;16.80;;;5.90;;
41705;SDS011;27385;51.096;17.190;2022-08-19T08:51:47;81.00;;;43.90;;
41705;SDS011;27385;51.096;17.190;2022-08-19T08:54:23;128.40;;;70.20;;
41705;SDS011;27385;51.096;17.190;2022-08-19T08:57:00;71.10;;;35.80;;
41705;SDS011;27385;51.096;17.190;2022-08-19T08:59:38;32.90;;;16.00;;
41705;SDS011;27385;51.096;17.190;2022-08-19T09:02:12;23.20;;;9.20;;
41705;SDS011;27385;51.096;17.190;2022-08-19T09:04:44;17.50;;;7.10;;
41705;SDS011;27385;51.096;17.190;2022-08-19T09:07:21;18.20;;;7.50;;
41705;SDS011;27385;51.096;17.190;2022-08-19T09:10:14;16.70;;;6.40;;
41705;SDS011;27385;51.096;17.190;2022-08-19T09:12:56;18.70;;;6.10;;
41705;SDS011;27385;51.096;17.190;2022-08-19T09:15:44;14.30;;;5.90;;
41705;SDS011;27385;51.096;17.190;2022-08-19T09:20:48;17.80;;;5.40;;
41705;SDS011;27385;51.096;17.190;2022-08-19T09:23:21;16.50;;;6.90;;
41705;SDS011;27385;51.096;17.190;2022-08-19T09:25:53;14.40;;;5.10;;
41705;SDS011;27385;51.096;17.190;2022-08-19T09:28:25;16.70;;;5.20;;
41705;SDS011;27385;51.096;17.190;2022-08-19T09:30:59;13.50;;;5.00;;
41705;SDS011;27385;51.096;17.190;2022-08-19T09:33:33;12.80;;;4.70;;
41705;SDS011;27385;51.096;17.190;2022-08-19T09:36:07;12.50;;;4.90;;
41705;SDS011;27385;51.096;17.190;2022-08-19T09:38:41;12.90;;;5.20;;
41705;SDS011;27385;51.096;17.190;2022-08-19T09:41:14;13.10;;;5.10;;
41705;SDS011;27385;51.096;17.190;2022-08-19T09:43:48;15.40;;;4.90;;
41705;SDS011;27385;51.096;17.190;2022-08-19T09:46:24;16.90;;;5.40;;
41705;SDS011;27385;51.096;17.190;2022-08-19T09:48:59;15.50;;;4.70;;
41705;SDS011;27385;51.096;17.190;2022-08-19T09:51:33;14.40;;;4.80;;
41705;SDS011;27385;51.096;17.190;2022-08-19T09:54:05;11.30;;;3.60;;
41705;SDS011;27385;51.096;17.190;2022-08-19T09:56:37;11.50;;;3.80;;
41705;SDS011;27385;51.096;17.190;2022-08-19T09:59:10;12.00;;;3.60;;
41705;SDS011;27385;51.096;17.190;2022-08-19T10:01:42;9.90;;;3.20;;
41705;SDS011;27385;51.096;17.190;2022-08-19T10:04:14;8.40;;;3.00;;
41705;SDS011;27385;51.096;17.190;2022-08-19T10:06:47;10.90;;;2.60;;
41705;SDS011;27385;51.096;17.190;2022-08-19T10:09:20;12.00;;;3.00;;
41705;SDS011;27385;51.096;17.190;2022-08-19T10:11:52;9.50;;;3.10;;
41705;SDS011;27385;51.096;17.190;2022-08-19T10:14:24;8.80;;;2.90;;
41705;SDS011;27385;51.096;17.190;2022-08-19T10:16:57;8.40;;;2.60;;
41705;SDS011;27385;51.096;17.190;2022-08-19T10:19:32;7.90;;;2.70;;
41705;SDS011;27385;51.096;17.190;2022-08-19T10:22:05;10.70;;;3.10;;
41705;SDS011;27385;51.096;17.190;2022-08-19T10:24:43;9.50;;;2.50;;
41705;SDS011;27385;51.096;17.190;2022-08-19T10:27:17;8.40;;;2.40;;
41705;SDS011;27385;51.096;17.190;2022-08-19T10:29:49;9.60;;;3.00;;
41705;SDS011;27385;51.096;17.190;2022-08-19T10:32:21;9.60;;;2.50;;
41705;SDS011;27385;51.096;17.190;2022-08-19T10:34:56;7.60;;;2.60;;
41705;SDS011;27385;51.096;17.190;2022-08-19T10:37:28;10.80;;;2.70;;
41705;SDS011;27385;51.096;17.190;2022-08-19T10:40:00;10.40;;;3.60;;
41705;SDS011;27385;51.096;17.190;2022-08-19T10:42:36;9.70;;;2.80;;
41705;SDS011;27385;51.096;17.190;2022-08-19T10:45:08;9.00;;;2.30;;
41705;SDS011;27385;51.096;17.190;2022-08-19T10:47:40;7.10;;;2.40;;
41705;SDS011;27385;51.096;17.190;2022-08-19T10:50:14;8.50;;;2.70;;
41705;SDS011;27385;51.096;17.190;2022-08-19T10:53:06;8.90;;;3.30;;
41705;SDS011;27385;51.096;17.190;2022-08-19T10:55:40;9.70;;;2.00;;
41705;SDS011;27385;51.096;17.190;2022-08-19T10:58:29;10.40;;;2.40;;
41705;SDS011;27385;51.096;17.190;2022-08-19T11:01:03;11.80;;;2.80;;
41705;SDS011;27385;51.096;17.190;2022-08-19T11:03:35;14.20;;;2.10;;
41705;SDS011;27385;51.096;17.190;2022-08-19T11:06:08;9.70;;;2.60;;
41705;SDS011;27385;51.096;17.190;2022-08-19T11:08:42;8.30;;;2.00;;
41705;SDS011;27385;51.096;17.190;2022-08-19T11:11:15;11.10;;;2.50;;
41705;SDS011;27385;51.096;17.190;2022-08-19T11:13:51;8.70;;;2.40;;
41705;SDS011;27385;51.096;17.190;2022-08-19T11:16:26;7.90;;;2.20;;
41705;SDS011;27385;51.096;17.190;2022-08-19T11:19:01;9.10;;;2.30;;
41705;SDS011;27385;51.096;17.190;2022-08-19T11:21:38;9.70;;;2.60;;
41705;SDS011;27385;51.096;17.190;2022-08-19T11:24:13;7.70;;;2.20;;
41705;SDS011;27385;51.096;17.190;2022-08-19T11:26:49;7.20;;;1.80;;
41705;SDS011;27385;51.096;17.190;2022-08-19T11:29:25;8.30;;;1.90;;
41705;SDS011;27385;51.096;17.190;2022-08-19T11:31:57;7.30;;;2.10;;
41705;SDS011;27385;51.096;17.190;2022-08-19T11:34:29;9.00;;;3.30;;
41705;SDS011;27385;51.096;17.190;2022-08-19T11:37:01;11.10;;;2.90;;
41705;SDS011;27385;51.096;17.190;2022-08-19T11:39:34;10.70;;;2.50;;
41705;SDS011;27385;51.096;17.190;2022-08-19T11:42:07;8.60;;;2.00;;
41705;SDS011;27385;51.096;17.190;2022-08-19T11:44:56;9.40;;;1.90;;
41705;SDS011;27385;51.096;17.190;2022-08-19T11:47:29;7.40;;;1.90;;
41705;SDS011;27385;51.096;17.190;2022-08-19T11:50:01;6.60;;;1.70;;
41705;SDS011;27385;51.096;17.190;2022-08-19T11:52:35;11.90;;;2.00;;
41705;SDS011;27385;51.096;17.190;2022-08-19T11:55:08;5.40;;;1.40;;
41705;SDS011;27385;51.096;17.190;2022-08-19T11:57:41;6.70;;;1.30;;
41705;SDS011;27385;51.096;17.190;2022-08-19T12:00:13;7.70;;;1.40;;
41705;SDS011;27385;51.096;17.190;2022-08-19T12:02:45;3.60;;;1.00;;
41705;SDS011;27385;51.096;17.190;2022-08-19T12:05:18;6.50;;;1.30;;
41705;SDS011;27385;51.096;17.190;2022-08-19T12:07:50;6.10;;;1.00;;
41705;SDS011;27385;51.096;17.190;2022-08-19T12:10:22;6.30;;;1.70;;
41705;SDS011;27385;51.096;17.190;2022-08-19T12:12:54;5.80;;;1.60;;
41705;SDS011;27385;51.096;17.190;2022-08-19T12:15:26;6.70;;;1.20;;
41705;SDS011;27385;51.096;17.190;2022-08-19T12:17:58;8.00;;;1.60;;
41705;SDS011;27385;51.096;17.190;2022-08-19T12:20:30;8.20;;;1.20;;
41705;SDS011;27385;51.096;17.190;2022-08-19T12:23:03;6.90;;;1.30;;
41705;SDS011;27385;51.096;17.190;2022-08-19T12:25:37;7.20;;;1.30;;
41705;SDS011;27385;51.096;17.190;2022-08-19T12:28:20;6.20;;;1.20;;
41705;SDS011;27385;51.096;17.190;2022-08-19T12:30:53;4.60;;;1.00;;
41705;SDS011;27385;51.096;17.190;2022-08-19T12:33:25;7.70;;;1.40;;
41705;SDS011;27385;51.096;17.190;2022-08-19T12:36:00;4.70;;;1.30;;
41705;SDS011;27385;51.096;17.190;2022-08-19T12:38:33;5.10;;;1.30;;
41705;SDS011;27385;51.096;17.190;2022-08-19T12:41:06;4.00;;;1.20;;
41705;SDS011;27385;51.096;17.190;2022-08-19T12:43:39;7.70;;;1.20;;
41705;SDS011;27385;51.096;17.190;2022-08-19T12:46:11;4.70;;;1.10;;
41705;SDS011;27385;51.096;17.190;2022-08-19T12:48:42;7.20;;;1.60;;
41705;SDS011;27385;51.096;17.190;2022-08-19T12:51:15;7.90;;;1.40;;
41705;SDS011;27385;51.096;17.190;2022-08-19T12:53:47;5.50;;;1.30;;
41705;SDS011;27385;51.096;17.190;2022-08-19T12:56:20;7.20;;;1.50;;
41705;SDS011;27385;51.096;17.190;2022-08-19T12:58:51;6.50;;;1.20;;
41705;SDS011;27385;51.096;17.190;2022-08-19T13:01:25;9.10;;;1.40;;
41705;SDS011;27385;51.096;17.190;2022-08-19T13:04:00;5.70;;;1.10;;
41705;SDS011;27385;51.096;17.190;2022-08-19T13:06:32;10.40;;;1.20;;
41705;SDS011;27385;51.096;17.190;2022-08-19T13:09:05;5.00;;;0.90;;
41705;SDS011;27385;51.096;17.190;2022-08-19T13:11:37;7.90;;;1.10;;
41705;SDS011;27385;51.096;17.190;2022-08-19T13:14:09;10.00;;;1.10;;
41705;SDS011;27385;51.096;17.190;2022-08-19T13:16:42;8.40;;;1.50;;
41705;SDS011;27385;51.096;17.190;2022-08-19T13:19:14;5.40;;;1.00;;
41705;SDS011;27385;51.096;17.190;2022-08-19T13:21:50;8.70;;;1.20;;
41705;SDS011;27385;51.096;17.190;2022-08-19T13:24:24;6.40;;;1.10;;
41705;SDS011;27385;51.096;17.190;2022-08-19T13:26:58;8.60;;;1.10;;
41705;SDS011;27385;51.096;17.190;2022-08-19T13:29:30;6.80;;;1.70;;
41705;SDS011;27385;51.096;17.190;2022-08-19T13:32:19;6.20;;;1.00;;
41705;SDS011;27385;51.096;17.190;2022-08-19T13:35:08;8.70;;;1.00;;
41705;SDS011;27385;51.096;17.190;2022-08-19T13:37:40;6.50;;;0.80;;
41705;SDS011;27385;51.096;17.190;2022-08-19T13:40:15;5.70;;;1.20;;
41705;SDS011;27385;51.096;17.190;2022-08-19T13:42:51;11.40;;;1.40;;
41705;SDS011;27385;51.096;17.190;2022-08-19T13:45:24;6.80;;;1.10;;
41705;SDS011;27385;51.096;17.190;2022-08-19T13:47:58;11.50;;;2.00;;
41705;SDS011;27385;51.096;17.190;2022-08-19T13:50:33;9.70;;;1.00;;
41705;SDS011;27385;51.096;17.190;2022-08-19T13:53:10;7.30;;;1.40;;
41705;SDS011;27385;51.096;17.190;2022-08-19T13:55:43;10.10;;;1.60;;
41705;SDS011;27385;51.096;17.190;2022-08-19T13:58:15;12.00;;;1.40;;
41705;SDS011;27385;51.096;17.190;2022-08-19T14:00:46;10.50;;;1.60;;
41705;SDS011;27385;51.096;17.190;2022-08-19T14:03:18;6.20;;;1.20;;
41705;SDS011;27385;51.096;17.190;2022-08-19T14:05:50;8.30;;;1.40;;
41705;SDS011;27385;51.096;17.190;2022-08-19T14:08:21;5.60;;;1.00;;
41705;SDS011;27385;51.096;17.190;2022-08-19T14:10:56;7.00;;;1.50;;
41705;SDS011;27385;51.096;17.190;2022-08-19T14:13:27;8.20;;;1.10;;
41705;SDS011;27385;51.096;17.190;2022-08-19T14:16:02;7.30;;;1.10;;
41705;SDS011;27385;51.096;17.190;2022-08-19T14:18:39;13.20;;;2.30;;
41705;SDS011;27385;51.096;17.190;2022-08-19T14:21:15;7.10;;;1.30;;
41705;SDS011;27385;51.096;17.190;2022-08-19T14:26:22;6.90;;;1.70;;
41705;SDS011;27385;51.096;17.190;2022-08-19T14:28:54;9.20;;;1.50;;
41705;SDS011;27385;51.096;17.190;2022-08-19T14:31:26;7.80;;;1.50;;
41705;SDS011;27385;51.096;17.190;2022-08-19T14:33:58;10.00;;;2.10;;
41705;SDS011;27385;51.096;17.190;2022-08-19T14:36:31;6.10;;;1.70;;
41705;SDS011;27385;51.096;17.190;2022-08-19T14:39:03;8.20;;;1.50;;
41705;SDS011;27385;51.096;17.190;2022-08-19T14:41:39;8.70;;;1.60;;
41705;SDS011;27385;51.096;17.190;2022-08-19T14:44:11;7.80;;;1.20;;
41705;SDS011;27385;51.096;17.190;2022-08-19T14:46:43;11.60;;;1.20;;
41705;SDS011;27385;51.096;17.190;2022-08-19T14:49:16;9.10;;;1.40;;
41705;SDS011;27385;51.096;17.190;2022-08-19T14:51:49;6.80;;;1.30;;
41705;SDS011;27385;51.096;17.190;2022-08-19T14:54:21;10.80;;;1.70;;
41705;SDS011;27385;51.096;17.190;2022-08-19T14:56:54;6.70;;;1.50;;
41705;SDS011;27385;51.096;17.190;2022-08-19T14:59:27;12.30;;;1.50;;
41705;SDS011;27385;51.096;17.190;2022-08-19T15:01:59;7.90;;;1.30;;
41705;SDS011;27385;51.096;17.190;2022-08-19T15:04:31;11.40;;;2.20;;
41705;SDS011;27385;51.096;17.190;2022-08-19T15:07:03;11.70;;;1.60;;
41705;SDS011;27385;51.096;17.190;2022-08-19T15:09:36;8.80;;;1.60;;
41705;SDS011;27385;51.096;17.190;2022-08-19T15:12:08;8.00;;;1.50;;